createdAt,value
2018-04-02T00:00:18.016Z,5.60
2018-04-02T00:02:45.786Z,5.60
2018-04-02T00:05:14.088Z,5.70
2018-04-02T00:07:42.343Z,5.70
2018-04-02T00:10:10.729Z,5.70
2018-04-02T00:12:38.982Z,5.70
2018-04-02T00:15:06.497Z,5.70
2018-04-02T00:17:34.943Z,5.70
2018-04-02T00:20:03.319Z,5.80
2018-04-02T00:22:31.574Z,5.80
2018-04-02T00:24:59.055Z,5.80
2018-04-02T00:27:27.288Z,5.80
2018-04-02T00:29:54.771Z,5.80
2018-04-02T00:32:22.225Z,5.70
2018-04-02T00:34:50.477Z,5.90
2018-04-02T00:37:17.978Z,5.90
2018-04-02T00:39:46.214Z,5.90
2018-04-02T00:42:13.874Z,5.90
2018-04-02T00:44:41.350Z,5.90
2018-04-02T00:47:08.837Z,5.90
2018-04-02T00:49:36.337Z,5.90
2018-04-02T00:52:03.810Z,5.90
2018-04-02T00:54:31.288Z,6.00
2018-04-02T00:56:59.540Z,5.90
2018-04-02T00:59:27.166Z,5.90
2018-04-02T01:01:54.729Z,5.90
2018-04-02T01:04:22.254Z,5.90
2018-04-02T01:06:50.597Z,5.90
2018-04-02T01:09:18.169Z,5.90
2018-04-02T01:11:45.661Z,5.90
2018-04-02T01:14:13.131Z,5.80
2018-04-02T01:16:40.621Z,5.80
2018-04-02T01:19:08.086Z,5.80
2018-04-02T01:21:35.565Z,5.80
2018-04-02T01:24:03.805Z,5.80
2018-04-02T01:26:31.410Z,5.80
2018-04-02T01:28:58.910Z,5.80
2018-04-02T01:31:26.469Z,5.80
2018-04-02T01:33:54.018Z,5.80
2018-04-02T01:36:21.694Z,5.80
2018-04-02T01:38:49.168Z,5.70
2018-04-02T01:41:16.656Z,5.60
2018-04-02T01:43:44.986Z,5.40
2018-04-02T01:46:12.548Z,5.40
2018-04-02T01:48:40.027Z,5.30
2018-04-02T01:51:07.518Z,5.10
2018-04-02T01:53:34.991Z,5.10
2018-04-02T01:56:02.464Z,5.10
2018-04-02T01:58:29.941Z,5.10
2018-04-02T02:00:57.414Z,5.20
2018-04-02T02:03:24.891Z,5.20
2018-04-02T02:05:53.112Z,5.00
2018-04-02T02:08:20.601Z,5.00
2018-04-02T02:10:48.069Z,5.00
2018-04-02T02:13:15.609Z,5.00
2018-04-02T02:15:43.105Z,5.00
2018-04-02T02:18:11.364Z,5.20
2018-04-02T02:20:39.593Z,5.20
2018-04-02T02:23:07.136Z,5.20
2018-04-02T02:25:34.607Z,5.30
2018-04-02T02:28:02.083Z,5.30
2018-04-02T02:30:29.623Z,5.20
2018-04-02T02:32:57.078Z,5.10
2018-04-02T02:35:24.570Z,5.10
2018-04-02T02:37:52.038Z,5.00
2018-04-02T02:40:20.118Z,4.90
2018-04-02T02:42:48.358Z,5.10
2018-04-02T02:45:15.835Z,5.00
2018-04-02T02:47:43.797Z,5.00
2018-04-02T02:50:11.313Z,5.00
2018-04-02T02:52:38.806Z,5.10
2018-04-02T02:55:06.286Z,5.00
2018-04-02T02:57:34.526Z,4.80
2018-04-02T03:00:02.013Z,4.80
2018-04-02T03:02:29.480Z,4.80
2018-04-02T03:04:57.724Z,4.70
2018-04-02T03:07:25.211Z,4.70
2018-04-02T03:09:52.685Z,4.70
2018-04-02T03:12:20.927Z,4.70
2018-04-02T03:14:48.423Z,4.70
2018-04-02T03:17:15.905Z,4.70
2018-04-02T03:19:43.398Z,4.80
2018-04-02T03:22:10.916Z,4.80
2018-04-02T03:24:38.465Z,4.80
2018-04-02T03:27:05.942Z,4.90
2018-04-02T03:29:33.421Z,4.90
2018-04-02T03:32:00.907Z,5.00
2018-04-02T03:34:28.532Z,5.20
2018-04-02T03:36:56.077Z,5.30
2018-04-02T03:39:23.550Z,5.30
2018-04-02T03:41:51.024Z,5.20
2018-04-02T03:44:20.010Z,5.10
2018-04-02T03:46:48.356Z,5.10
2018-04-02T03:49:15.820Z,5.10
2018-04-02T03:51:43.305Z,5.00
2018-04-02T03:54:12.284Z,5.00
2018-04-02T03:56:39.782Z,5.00
2018-04-02T03:59:08.024Z,5.10
2018-04-02T04:01:35.502Z,5.10
2018-04-02T04:04:03.750Z,5.00
2018-04-02T04:06:31.225Z,5.00
2018-04-02T04:08:58.720Z,5.00
2018-04-02T04:11:26.186Z,5.10
2018-04-02T04:13:53.671Z,5.10
2018-04-02T04:16:21.133Z,5.00
2018-04-02T04:18:48.617Z,5.00
2018-04-02T04:21:16.661Z,5.00
2018-04-02T04:23:44.147Z,5.00
2018-04-02T04:26:11.611Z,5.10
2018-04-02T04:28:39.854Z,5.10
2018-04-02T04:31:07.485Z,5.10
2018-04-02T04:33:35.974Z,5.00
2018-04-02T04:36:03.437Z,5.00
2018-04-02T04:38:30.934Z,4.90
2018-04-02T04:40:59.913Z,4.80
2018-04-02T04:43:27.388Z,4.80
2018-04-02T04:45:55.630Z,4.80
2018-04-02T04:48:23.138Z,4.70
2018-04-02T04:50:51.382Z,4.80
2018-04-02T04:53:18.858Z,4.80
2018-04-02T04:55:46.321Z,4.80
2018-04-02T04:58:14.566Z,4.70
2018-04-02T05:00:42.056Z,4.70
2018-04-02T05:03:10.293Z,4.80
2018-04-02T05:05:37.761Z,4.80
2018-04-02T05:08:05.249Z,4.80
2018-04-02T05:10:33.485Z,4.70
2018-04-02T05:13:00.962Z,4.70
2018-04-02T05:15:28.436Z,4.70
2018-04-02T05:17:56.677Z,4.70
2018-04-02T05:20:24.161Z,4.70
2018-04-02T05:22:52.410Z,4.80
2018-04-02T05:25:20.059Z,4.70
2018-04-02T05:27:47.518Z,4.80
2018-04-02T05:30:15.119Z,4.80
2018-04-02T05:32:43.353Z,4.80
2018-04-02T05:35:10.833Z,4.80
2018-04-02T05:37:38.307Z,4.70
2018-04-02T05:40:06.555Z,4.70
2018-04-02T05:42:34.041Z,4.70
2018-04-02T05:45:02.296Z,4.70
2018-04-02T05:47:29.754Z,4.70
2018-04-02T05:49:57.242Z,4.80
2018-04-02T05:52:24.698Z,4.80
2018-04-02T05:54:52.234Z,4.80
2018-04-02T05:57:19.666Z,4.90
2018-04-02T05:59:47.147Z,4.90
2018-04-02T06:02:14.613Z,4.90
2018-04-02T06:04:42.868Z,5.00
2018-04-02T06:07:10.341Z,5.00
2018-04-02T06:09:38.690Z,5.10
2018-04-02T06:12:06.161Z,5.10
2018-04-02T06:14:33.631Z,5.10
2018-04-02T06:17:01.989Z,5.30
2018-04-02T06:19:29.452Z,5.30
2018-04-02T06:21:56.934Z,5.30
2018-04-02T06:24:25.157Z,5.40
2018-04-02T06:26:52.635Z,5.40
2018-04-02T06:29:20.117Z,5.40
2018-04-02T06:31:48.430Z,5.50
2018-04-02T06:34:15.893Z,5.50
2018-04-02T06:36:43.373Z,5.40
2018-04-02T06:39:10.840Z,5.50
2018-04-02T06:41:38.326Z,5.50
2018-04-02T06:44:06.564Z,5.60
2018-04-02T06:46:34.037Z,5.60
2018-04-02T06:49:01.513Z,5.60
2018-04-02T06:51:29.756Z,5.60
2018-04-02T06:53:57.236Z,5.60
2018-04-02T06:56:25.482Z,5.70
2018-04-02T06:58:52.958Z,5.70
2018-04-02T07:01:20.518Z,5.70
2018-04-02T07:03:48.924Z,5.70
2018-04-02T07:06:17.150Z,5.80
2018-04-02T07:08:44.633Z,5.70
2018-04-02T07:11:12.110Z,5.80
2018-04-02T07:13:39.601Z,5.90
2018-04-02T07:16:07.082Z,5.90
2018-04-02T07:18:34.624Z,6.00
2018-04-02T07:21:02.124Z,6.10
2018-04-02T07:23:29.677Z,6.20
2018-04-02T07:25:57.238Z,6.20
2018-04-02T07:28:24.749Z,6.30
2018-04-02T07:30:52.354Z,6.30
2018-04-02T07:33:20.016Z,6.40
2018-04-02T07:35:47.500Z,6.30
2018-04-02T07:38:15.879Z,6.30
2018-04-02T07:40:43.364Z,6.30
2018-04-02T07:43:10.855Z,6.40
2018-04-02T07:45:38.324Z,6.40
2018-04-02T07:48:05.806Z,6.50
2018-04-02T07:50:34.054Z,6.60
2018-04-02T07:53:01.643Z,6.50
2018-04-02T07:55:29.871Z,6.70
2018-04-02T07:57:57.412Z,6.70
2018-04-02T08:00:24.964Z,6.80
2018-04-02T08:02:52.987Z,6.90
2018-04-02T08:05:20.562Z,6.90
2018-04-02T08:07:48.854Z,6.90
2018-04-02T08:10:16.364Z,6.90
2018-04-02T08:12:43.829Z,6.90
2018-04-02T08:15:11.401Z,6.90
2018-04-02T08:17:39.621Z,7.10
2018-04-02T08:20:07.109Z,7.10
2018-04-02T08:22:34.587Z,7.20
2018-04-02T08:25:02.867Z,7.30
2018-04-02T08:27:31.100Z,7.30
2018-04-02T08:29:58.589Z,7.30
2018-04-02T08:32:26.124Z,7.40
2018-04-02T08:34:53.576Z,7.60
2018-04-02T08:37:21.050Z,7.70
2018-04-02T08:39:48.529Z,7.80
2018-04-02T08:42:16.873Z,8.10
2018-04-02T08:44:44.337Z,8.10
2018-04-02T08:47:13.369Z,8.00
2018-04-02T08:49:40.981Z,8.00
2018-04-02T08:52:08.518Z,8.10
2018-04-02T08:54:35.989Z,8.10
2018-04-02T08:57:04.284Z,8.20
2018-04-02T08:59:31.753Z,8.20
2018-04-02T09:01:59.233Z,8.30
2018-04-02T09:04:27.525Z,8.60
2018-04-02T09:06:55.168Z,8.60
2018-04-02T09:09:23.408Z,8.80
2018-04-02T09:11:52.478Z,8.80
2018-04-02T09:14:20.008Z,8.80
2018-04-02T09:16:47.591Z,8.70
2018-04-02T09:19:15.192Z,8.70
2018-04-02T09:21:42.814Z,8.90
2018-04-02T09:24:10.300Z,8.80
2018-04-02T09:26:37.988Z,8.80
2018-04-02T09:29:06.436Z,9.00
2018-04-02T09:31:34.167Z,8.90
2018-04-02T09:34:02.462Z,9.10
2018-04-02T09:36:30.220Z,9.20
2018-04-02T09:38:57.861Z,9.30
2018-04-02T09:41:25.347Z,9.30
2018-04-02T09:43:53.062Z,9.40
2018-04-02T09:46:21.755Z,9.80
2018-04-02T09:48:49.240Z,9.80
2018-04-02T09:51:16.739Z,9.90
2018-04-02T09:53:44.658Z,9.90
2018-04-02T09:56:12.338Z,10.10
2018-04-02T09:58:39.917Z,10.40
2018-04-02T10:01:07.567Z,10.60
2018-04-02T10:03:38.921Z,10.40
2018-04-02T10:06:07.313Z,11.10
2018-04-02T10:08:35.849Z,11.30
2018-04-02T10:11:03.534Z,11.30
2018-04-02T10:13:31.079Z,11.40
2018-04-02T10:15:58.650Z,11.60
2018-04-02T10:18:26.274Z,11.90
2018-04-02T10:20:53.915Z,12.10
2018-04-02T10:23:22.209Z,12.10
2018-04-02T10:25:50.528Z,11.90
2018-04-02T10:28:18.010Z,11.90
2018-04-02T10:30:45.510Z,11.80
2018-04-02T10:33:13.181Z,11.60
2018-04-02T10:35:40.957Z,11.70
2018-04-02T10:38:08.450Z,11.70
2018-04-02T10:40:36.317Z,11.60
2018-04-02T10:43:04.728Z,11.60
2018-04-02T10:45:32.522Z,11.60
2018-04-02T10:48:00.058Z,11.50
2018-04-02T10:50:27.581Z,11.70
2018-04-02T10:52:55.224Z,11.80
2018-04-02T10:55:22.764Z,11.70
2018-04-02T10:57:51.374Z,11.70
2018-04-02T11:00:19.659Z,11.60
2018-04-02T11:02:47.915Z,11.60
2018-04-02T11:05:15.446Z,11.60
2018-04-02T11:07:43.004Z,11.70
2018-04-02T11:10:10.606Z,11.80
2018-04-02T11:12:39.151Z,11.70
2018-04-02T11:15:06.675Z,11.70
2018-04-02T11:17:34.952Z,11.60
2018-04-02T11:20:02.636Z,11.60
2018-04-02T11:22:30.515Z,11.60
2018-04-02T11:24:58.039Z,11.70
2018-04-02T11:27:26.381Z,11.60
2018-04-02T11:29:53.956Z,11.60
2018-04-02T11:32:22.211Z,11.90
2018-04-02T11:34:49.811Z,11.90
2018-04-02T11:37:18.096Z,12.00
2018-04-02T11:39:45.683Z,11.90
2018-04-02T11:42:13.615Z,12.10
2018-04-02T11:44:41.185Z,12.30
2018-04-02T11:47:08.680Z,12.40
2018-04-02T11:49:36.181Z,12.60
2018-04-02T11:52:04.442Z,12.60
2018-04-02T11:54:31.906Z,12.60
2018-04-02T11:57:00.333Z,12.60
2018-04-02T11:59:27.906Z,12.70
2018-04-02T12:01:55.612Z,12.80
2018-04-02T12:04:23.964Z,13.30
2018-04-02T12:06:51.569Z,13.30
2018-04-02T12:09:19.061Z,13.00
2018-04-02T12:11:46.657Z,13.10
2018-04-02T12:14:14.673Z,12.90
2018-04-02T12:16:42.273Z,12.80
2018-04-02T12:19:09.797Z,12.70
2018-04-02T12:21:37.367Z,12.70
2018-04-02T12:24:05.079Z,12.60
2018-04-02T12:26:33.351Z,12.50
2018-04-02T12:29:01.818Z,12.60
2018-04-02T12:31:29.297Z,12.60
2018-04-02T12:33:57.560Z,12.50
2018-04-02T12:36:25.803Z,12.50
2018-04-02T12:38:53.585Z,12.50
2018-04-02T12:41:21.062Z,12.50
2018-04-02T12:43:49.320Z,12.70
2018-04-02T12:46:16.806Z,12.70
2018-04-02T12:48:45.054Z,12.50
2018-04-02T12:51:12.510Z,12.50
2018-04-02T12:53:40.188Z,12.60
2018-04-02T12:56:07.658Z,12.50
2018-04-02T12:58:36.040Z,12.60
2018-04-02T13:01:04.289Z,12.50
2018-04-02T13:03:31.768Z,12.50
2018-04-02T13:06:00.029Z,12.50
2018-04-02T13:08:28.260Z,12.70
2018-04-02T13:10:55.909Z,12.60
2018-04-02T13:13:23.457Z,12.70
2018-04-02T13:15:51.019Z,12.70
2018-04-02T13:18:18.641Z,12.70
2018-04-02T13:20:47.779Z,12.60
2018-04-02T13:23:15.237Z,12.60
2018-04-02T13:25:42.710Z,12.70
2018-04-02T13:28:10.175Z,12.70
2018-04-02T13:30:37.679Z,12.80
2018-04-02T13:35:39.931Z,12.80
2018-04-02T13:38:07.456Z,12.70
2018-04-02T13:40:34.943Z,12.70
2018-04-02T13:43:03.328Z,12.60
2018-04-02T13:45:30.950Z,12.60
2018-04-02T13:47:58.486Z,12.70
2018-04-02T13:50:25.989Z,12.70
2018-04-02T13:52:53.468Z,12.70
2018-04-02T13:55:22.450Z,12.80
2018-04-02T13:57:51.468Z,12.90
2018-04-02T14:00:19.685Z,13.00
2018-04-02T14:02:47.190Z,13.00
2018-04-02T14:05:14.651Z,13.10
2018-04-02T14:07:42.859Z,13.20
2018-04-02T14:10:10.312Z,13.40
2018-04-02T14:12:37.815Z,13.50
2018-04-02T14:15:05.285Z,13.60
2018-04-02T14:17:33.581Z,13.80
2018-04-02T14:20:01.831Z,13.90
2018-04-02T14:22:29.305Z,13.90
2018-04-02T14:24:56.771Z,13.90
2018-04-02T14:27:25.035Z,13.70
2018-04-02T14:29:53.322Z,13.70
2018-04-02T14:32:21.585Z,13.70
2018-04-02T14:34:49.198Z,13.60
2018-04-02T14:37:16.715Z,13.60
2018-04-02T14:39:44.220Z,13.70
2018-04-02T14:42:11.702Z,13.70
2018-04-02T14:44:39.333Z,13.70
2018-04-02T14:47:07.630Z,13.80
2018-04-02T14:49:35.258Z,13.80
2018-04-02T14:52:02.801Z,13.80
2018-04-02T14:54:31.103Z,14.00
2018-04-02T14:56:58.581Z,13.90
2018-04-02T14:59:26.070Z,14.00
2018-04-02T15:01:54.348Z,13.90
2018-04-02T15:04:21.870Z,13.90
2018-04-02T15:06:49.333Z,13.80
2018-04-02T15:09:16.841Z,13.80
2018-04-02T15:11:45.222Z,13.70
2018-04-02T15:14:12.684Z,13.60
2018-04-02T15:16:40.306Z,13.60
2018-04-02T15:19:08.464Z,13.70
2018-04-02T15:21:35.936Z,13.70
2018-04-02T15:24:05.033Z,13.70
2018-04-02T15:26:33.292Z,13.70
2018-04-02T15:29:00.771Z,13.70
2018-04-02T15:31:29.182Z,13.70
2018-04-02T15:33:56.634Z,13.70
2018-04-02T15:36:24.112Z,13.80
2018-04-02T15:38:51.749Z,13.90
2018-04-02T15:41:20.076Z,13.90
2018-04-02T15:43:47.562Z,13.90
2018-04-02T15:46:15.831Z,13.90
2018-04-02T15:48:45.109Z,13.80
2018-04-02T15:51:12.583Z,13.80
2018-04-02T15:53:41.568Z,13.80
2018-04-02T15:56:09.099Z,13.80
2018-04-02T15:58:36.681Z,13.70
2018-04-02T16:01:04.377Z,13.50
2018-04-02T16:03:32.818Z,13.30
2018-04-02T16:06:01.136Z,13.30
2018-04-02T16:08:28.808Z,13.20
2018-04-02T16:10:57.542Z,13.20
2018-04-02T16:13:25.234Z,13.20
2018-04-02T16:15:52.782Z,13.20
2018-04-02T16:18:21.062Z,13.20
2018-04-02T16:20:48.728Z,13.10
2018-04-02T16:23:17.156Z,13.20
2018-04-02T16:25:44.675Z,13.20
2018-04-02T16:28:12.348Z,13.20
2018-04-02T16:30:40.712Z,13.10
2018-04-02T16:33:08.289Z,13.10
2018-04-02T16:35:36.408Z,13.10
2018-04-02T16:38:04.473Z,13.10
2018-04-02T16:40:31.946Z,13.00
2018-04-02T16:42:59.444Z,13.10
2018-04-02T16:45:27.674Z,13.00
2018-04-02T16:47:55.261Z,13.00
2018-04-02T16:50:23.482Z,13.00
2018-04-02T16:52:51.812Z,13.00
2018-04-02T16:55:20.077Z,13.00
2018-04-02T16:57:47.547Z,13.00
2018-04-02T17:00:15.740Z,13.00
2018-04-02T17:02:43.245Z,12.90
2018-04-02T17:05:10.845Z,12.90
2018-04-02T17:07:39.113Z,12.90
2018-04-02T17:10:07.414Z,12.90
2018-04-02T17:12:35.033Z,12.90
2018-04-02T17:15:02.506Z,13.00
2018-04-02T17:17:30.780Z,12.90
2018-04-02T17:19:58.339Z,12.90
2018-04-02T17:22:25.944Z,13.00
2018-04-02T17:24:53.459Z,12.90
2018-04-02T17:27:22.908Z,12.90
2018-04-02T17:29:51.065Z,12.90
2018-04-02T17:32:19.225Z,12.90
2018-04-02T17:34:48.138Z,13.00
2018-04-02T17:37:15.991Z,13.00
2018-04-02T17:39:44.169Z,13.00
2018-04-02T17:42:12.014Z,13.00
2018-04-02T17:44:40.700Z,12.90
2018-04-02T17:47:08.665Z,12.90
2018-04-02T17:49:37.019Z,12.90
2018-04-02T17:52:04.871Z,12.90
2018-04-02T17:54:32.410Z,12.90
2018-04-02T17:57:00.463Z,12.80
2018-04-02T17:59:28.550Z,12.80
2018-04-02T18:01:56.438Z,12.90
2018-04-02T18:04:24.216Z,13.00
2018-04-02T18:06:51.772Z,12.90
2018-04-02T18:09:19.636Z,13.00
2018-04-02T18:11:47.219Z,12.90
2018-04-02T18:14:14.711Z,12.90
2018-04-02T18:16:42.251Z,12.70
2018-04-02T18:19:10.514Z,12.50
2018-04-02T18:21:38.165Z,12.60
2018-04-02T18:24:06.422Z,12.40
2018-04-02T18:26:33.918Z,12.40
2018-04-02T18:29:02.340Z,12.30
2018-04-02T18:31:29.874Z,12.20
2018-04-02T18:33:57.452Z,12.20
2018-04-02T18:36:24.954Z,12.20
2018-04-02T18:38:52.446Z,12.20
2018-04-02T18:41:19.971Z,12.20
2018-04-02T18:43:49.130Z,12.20
2018-04-02T18:46:16.623Z,12.20
2018-04-02T18:48:44.881Z,12.10
2018-04-02T18:51:12.439Z,12.10
2018-04-02T18:53:39.982Z,12.10
2018-04-02T18:56:07.514Z,12.00
2018-04-02T18:58:35.054Z,11.90
2018-04-02T19:01:03.325Z,11.70
2018-04-02T19:03:32.347Z,11.60
2018-04-02T19:06:00.584Z,11.50
2018-04-02T19:08:28.222Z,11.50
2018-04-02T19:10:55.909Z,11.40
2018-04-02T19:13:23.494Z,11.40
2018-04-02T19:15:51.713Z,11.30
2018-04-02T19:18:19.288Z,11.30
2018-04-02T19:20:46.804Z,11.20
2018-04-02T19:23:14.314Z,11.20
2018-04-02T19:25:41.805Z,11.10
2018-04-02T19:28:09.360Z,11.10
2018-04-02T19:30:36.878Z,11.00
2018-04-02T19:33:04.352Z,10.90
2018-04-02T19:35:32.698Z,10.80
2018-04-02T19:38:00.234Z,10.80
2018-04-02T19:40:27.899Z,10.80
2018-04-02T19:42:55.534Z,10.80
2018-04-02T19:45:23.074Z,10.80
2018-04-02T19:47:51.698Z,10.80
2018-04-02T19:50:19.267Z,10.70
2018-04-02T19:52:46.810Z,10.80
2018-04-02T19:55:14.329Z,10.80
2018-04-02T19:57:42.751Z,10.70
2018-04-02T20:00:10.242Z,10.70
2018-04-02T20:02:37.738Z,10.70
2018-04-02T20:05:06.004Z,10.70
2018-04-02T20:07:34.257Z,10.70
2018-04-02T20:10:01.825Z,10.70
2018-04-02T20:12:30.676Z,10.70
2018-04-02T20:14:58.257Z,10.70
2018-04-02T20:17:25.762Z,10.70
2018-04-02T20:19:53.318Z,10.70
2018-04-02T20:22:21.604Z,10.70
2018-04-02T20:24:49.127Z,10.60
2018-04-02T20:27:16.612Z,10.70
2018-04-02T20:29:44.130Z,10.70
2018-04-02T20:32:11.597Z,10.80
2018-04-02T20:34:39.185Z,10.70
2018-04-02T20:37:07.534Z,10.60
2018-04-02T20:39:35.185Z,10.60
2018-04-02T20:42:02.711Z,10.60
2018-04-02T20:44:30.341Z,10.60
2018-04-02T20:46:58.585Z,10.50
2018-04-02T20:49:26.053Z,10.50
2018-04-02T20:51:53.553Z,10.50
2018-04-02T20:54:21.191Z,10.40
2018-04-02T20:56:49.452Z,10.30
2018-04-02T20:59:16.970Z,10.30
2018-04-02T21:01:44.494Z,10.30
2018-04-02T21:04:12.718Z,10.30
2018-04-02T21:06:40.269Z,10.20
2018-04-02T21:09:07.783Z,10.20
2018-04-02T21:11:35.335Z,10.20
2018-04-02T21:14:03.600Z,10.30
2018-04-02T21:16:31.874Z,10.30
2018-04-02T21:19:00.126Z,10.30
2018-04-02T21:21:27.782Z,10.30
2018-04-02T21:23:55.418Z,10.30
2018-04-02T21:26:23.827Z,10.20
2018-04-02T21:28:52.926Z,10.20
2018-04-02T21:31:21.389Z,10.20
2018-04-02T21:33:48.991Z,10.20
2018-04-02T21:36:17.238Z,10.20
2018-04-02T21:38:44.718Z,10.20
2018-04-02T21:41:12.965Z,10.20
2018-04-02T21:43:40.448Z,10.20
2018-04-02T21:46:07.924Z,10.20
2018-04-02T21:48:35.510Z,10.20
2018-04-02T21:51:03.485Z,10.20
2018-04-02T21:53:30.982Z,10.20
2018-04-02T21:55:58.616Z,10.20
2018-04-02T21:58:26.303Z,10.20
2018-04-02T22:00:53.838Z,10.20
2018-04-02T22:03:21.338Z,10.20
2018-04-02T22:05:48.890Z,10.40
2018-04-02T22:08:17.163Z,10.30
2018-04-02T22:10:44.649Z,10.30
2018-04-02T22:13:12.242Z,10.30
2018-04-02T22:15:39.741Z,10.30
2018-04-02T22:18:08.017Z,10.20
2018-04-02T22:20:36.266Z,10.20
2018-04-02T22:23:03.785Z,10.20
2018-04-02T22:25:31.273Z,10.20
2018-04-02T22:27:58.739Z,10.20
2018-04-02T22:30:26.297Z,10.20
2018-04-02T22:32:53.969Z,10.20
2018-04-02T22:35:21.505Z,10.20
2018-04-02T22:37:49.175Z,10.30
2018-04-02T22:40:16.661Z,10.30
2018-04-02T22:42:45.996Z,10.20
2018-04-02T22:45:13.468Z,10.30
2018-04-02T22:47:40.966Z,10.30
2018-04-02T22:50:08.437Z,10.20
2018-04-02T22:52:36.661Z,10.30
2018-04-02T22:55:04.230Z,10.30
2018-04-02T22:57:31.693Z,10.30
2018-04-02T22:59:59.169Z,10.40
2018-04-02T23:02:26.637Z,10.40
2018-04-02T23:04:54.125Z,10.60
2018-04-02T23:07:21.596Z,10.80
2018-04-02T23:09:49.061Z,11.00
2018-04-02T23:12:16.520Z,11.10
2018-04-02T23:14:44.125Z,11.10
2018-04-02T23:17:12.401Z,11.20
2018-04-02T23:19:40.633Z,11.20
2018-04-02T23:22:08.171Z,11.20
2018-04-02T23:24:35.648Z,11.30
2018-04-02T23:27:03.102Z,11.30
2018-04-02T23:29:30.587Z,11.10
2018-04-02T23:31:58.264Z,11.00
2018-04-02T23:34:25.725Z,10.80
2018-04-02T23:36:53.960Z,10.70
2018-04-02T23:39:22.086Z,10.70
2018-04-02T23:41:50.325Z,10.70
2018-04-02T23:44:17.794Z,10.70
2018-04-02T23:46:45.355Z,10.80
2018-04-02T23:49:12.821Z,10.90
2018-04-02T23:51:41.073Z,10.80
2018-04-02T23:54:08.545Z,10.80
2018-04-02T23:56:36.025Z,11.00
2018-04-02T23:59:04.260Z,11.30
